Аэропорт: Сыктывкар. Сыктывкар

ICAO: UUYY

METAR:
2018/09/23 11:00
UUYY 231100Z 18005G10MPS CAVOK 23/13 Q1007 R18/CLRD61 NOSIG RMK QFE747/0996
METAR:
2018/09/20 15:30
TAF TAF UUYY 201400Z 2015/2115 36003MPS 4000 BR BKN011 
      TEMPO 2015/2106 VRB01MPS 0300 FG BKN002 
     FM210600 22003G08MPS 9999 BKN015 SCT020CB 
      TEMPO 2109/2115 23005G10MPS 4000 -SHRA BKN011 BKN015CB